sensor_id;sensor_type;location;lat;lon;timestamp;temperature;humidity
15765;DHT22;7983;50.744;7.086;2022-12-29T00:00:14;13.50;99.90
15765;DHT22;7983;50.744;7.086;2022-12-29T00:02:39;13.50;99.90
15765;DHT22;7983;50.744;7.086;2022-12-29T00:05:07;13.40;99.90
15765;DHT22;7983;50.744;7.086;2022-12-29T00:07:33;13.50;99.90
15765;DHT22;7983;50.744;7.086;2022-12-29T00:09:58;13.60;99.90
15765;DHT22;7983;50.744;7.086;2022-12-29T00:12:24;13.50;99.90
15765;DHT22;7983;50.744;7.086;2022-12-29T00:15:09;13.50;99.90
15765;DHT22;7983;50.744;7.086;2022-12-29T00:17:56;13.60;99.90
15765;DHT22;7983;50.744;7.086;2022-12-29T00:20:21;13.60;99.90
15765;DHT22;7983;50.744;7.086;2022-12-29T00:23:07;13.60;99.90
15765;DHT22;7983;50.744;7.086;2022-12-29T00:25:52;13.60;99.90
15765;DHT22;7983;50.744;7.086;2022-12-29T00:28:36;13.60;99.90
15765;DHT22;7983;50.744;7.086;2022-12-29T00:31:22;13.60;99.90
15765;DHT22;7983;50.744;7.086;2022-12-29T00:34:10;13.70;99.90
15765;DHT22;7983;50.744;7.086;2022-12-29T00:36:56;13.70;99.90
15765;DHT22;7983;50.744;7.086;2022-12-29T00:39:22;13.70;99.90
15765;DHT22;7983;50.744;7.086;2022-12-29T00:42:10;13.70;99.90
15765;DHT22;7983;50.744;7.086;2022-12-29T00:44:55;13.70;99.90
15765;DHT22;7983;50.744;7.086;2022-12-29T00:47:20;13.70;99.90
15765;DHT22;7983;50.744;7.086;2022-12-29T00:49:48;13.70;99.90
15765;DHT22;7983;50.744;7.086;2022-12-29T00:52:14;13.80;99.90
15765;DHT22;7983;50.744;7.086;2022-12-29T00:54:40;13.80;99.90
15765;DHT22;7983;50.744;7.086;2022-12-29T00:57:13;13.80;99.90
15765;DHT22;7983;50.744;7.086;2022-12-29T00:59:40;13.90;99.90
15765;DHT22;7983;50.744;7.086;2022-12-29T01:02:10;13.90;99.90
15765;DHT22;7983;50.744;7.086;2022-12-29T01:04:37;13.90;99.90
15765;DHT22;7983;50.744;7.086;2022-12-29T01:07:03;13.90;99.90
15765;DHT22;7983;50.744;7.086;2022-12-29T01:09:32;13.90;99.90
15765;DHT22;7983;50.744;7.086;2022-12-29T01:12:18;13.90;99.90
15765;DHT22;7983;50.744;7.086;2022-12-29T01:15:08;13.90;99.90
15765;DHT22;7983;50.744;7.086;2022-12-29T01:17:36;13.90;99.90
15765;DHT22;7983;50.744;7.086;2022-12-29T01:20:03;13.90;99.90
15765;DHT22;7983;50.744;7.086;2022-12-29T01:22:29;13.90;99.90
15765;DHT22;7983;50.744;7.086;2022-12-29T01:24:56;14.00;99.90
15765;DHT22;7983;50.744;7.086;2022-12-29T01:27:22;14.00;99.90
15765;DHT22;7983;50.744;7.086;2022-12-29T01:29:48;14.00;99.90
15765;DHT22;7983;50.744;7.086;2022-12-29T01:32:15;14.00;99.90
15765;DHT22;7983;50.744;7.086;2022-12-29T01:34:43;14.10;99.90
15765;DHT22;7983;50.744;7.086;2022-12-29T01:37:09;14.10;99.90
15765;DHT22;7983;50.744;7.086;2022-12-29T01:39:34;14.20;99.90
15765;DHT22;7983;50.744;7.086;2022-12-29T01:42:03;14.20;99.90
15765;DHT22;7983;50.744;7.086;2022-12-29T01:47:35;14.30;99.90
15765;DHT22;7983;50.744;7.086;2022-12-29T01:50:09;14.30;99.90
15765;DHT22;7983;50.744;7.086;2022-12-29T01:52:43;14.30;99.90
15765;DHT22;7983;50.744;7.086;2022-12-29T01:55:12;14.40;99.90
15765;DHT22;7983;50.744;7.086;2022-12-29T01:57:41;14.40;99.90
15765;DHT22;7983;50.744;7.086;2022-12-29T02:00:11;14.40;99.90
15765;DHT22;7983;50.744;7.086;2022-12-29T02:02:46;14.40;99.90
15765;DHT22;7983;50.744;7.086;2022-12-29T02:05:40;14.40;99.90
15765;DHT22;7983;50.744;7.086;2022-12-29T02:08:10;14.40;99.90
15765;DHT22;7983;50.744;7.086;2022-12-29T02:10:36;14.40;99.90
15765;DHT22;7983;50.744;7.086;2022-12-29T02:13:03;14.50;99.90
15765;DHT22;7983;50.744;7.086;2022-12-29T02:15:40;14.50;99.90
15765;DHT22;7983;50.744;7.086;2022-12-29T02:29:50;14.50;99.90
15765;DHT22;7983;50.744;7.086;2022-12-29T02:41:07;14.40;99.90
15765;DHT22;7983;50.744;7.086;2022-12-29T02:53:44;14.30;99.90
15765;DHT22;7983;50.744;7.086;2022-12-29T02:56:28;14.30;99.90
15765;DHT22;7983;50.744;7.086;2022-12-29T02:58:56;14.30;99.90
15765;DHT22;7983;50.744;7.086;2022-12-29T03:04:40;14.30;99.90
15765;DHT22;7983;50.744;7.086;2022-12-29T03:07:14;14.30;99.90
15765;DHT22;7983;50.744;7.086;2022-12-29T03:16:22;14.20;99.90
15765;DHT22;7983;50.744;7.086;2022-12-29T03:19:08;14.20;99.90
15765;DHT22;7983;50.744;7.086;2022-12-29T03:24:28;14.20;99.90
15765;DHT22;7983;50.744;7.086;2022-12-29T03:26:58;14.20;99.90
15765;DHT22;7983;50.744;7.086;2022-12-29T03:29:24;14.20;99.90
15765;DHT22;7983;50.744;7.086;2022-12-29T03:31:53;14.20;99.90
15765;DHT22;7983;50.744;7.086;2022-12-29T03:34:21;14.20;99.90
15765;DHT22;7983;50.744;7.086;2022-12-29T03:36:59;14.30;99.90
15765;DHT22;7983;50.744;7.086;2022-12-29T03:39:29;14.30;99.90
15765;DHT22;7983;50.744;7.086;2022-12-29T03:41:59;14.30;99.90
15765;DHT22;7983;50.744;7.086;2022-12-29T03:44:43;14.30;99.90
15765;DHT22;7983;50.744;7.086;2022-12-29T03:47:11;14.30;99.90
15765;DHT22;7983;50.744;7.086;2022-12-29T03:49:37;14.30;99.90
15765;DHT22;7983;50.744;7.086;2022-12-29T03:52:05;14.40;99.90
15765;DHT22;7983;50.744;7.086;2022-12-29T03:54:33;14.40;99.90
15765;DHT22;7983;50.744;7.086;2022-12-29T03:56:59;14.40;99.90
15765;DHT22;7983;50.744;7.086;2022-12-29T03:59:27;14.40;99.90
15765;DHT22;7983;50.744;7.086;2022-12-29T04:01:54;14.30;99.90
15765;DHT22;7983;50.744;7.086;2022-12-29T04:04:20;14.40;99.90
15765;DHT22;7983;50.744;7.086;2022-12-29T04:06:46;14.30;99.90
15765;DHT22;7983;50.744;7.086;2022-12-29T04:09:11;14.30;99.90
15765;DHT22;7983;50.744;7.086;2022-12-29T04:11:39;14.30;99.90
15765;DHT22;7983;50.744;7.086;2022-12-29T04:14:05;14.20;99.90
15765;DHT22;7983;50.744;7.086;2022-12-29T04:16:30;14.30;99.90
15765;DHT22;7983;50.744;7.086;2022-12-29T04:19:03;14.30;99.90
15765;DHT22;7983;50.744;7.086;2022-12-29T04:21:31;14.20;99.90
15765;DHT22;7983;50.744;7.086;2022-12-29T04:23:56;14.20;99.90
15765;DHT22;7983;50.744;7.086;2022-12-29T04:26:22;14.20;99.90
15765;DHT22;7983;50.744;7.086;2022-12-29T04:28:48;14.20;99.90
15765;DHT22;7983;50.744;7.086;2022-12-29T04:31:14;14.30;99.90
15765;DHT22;7983;50.744;7.086;2022-12-29T04:33:39;14.20;99.90
15765;DHT22;7983;50.744;7.086;2022-12-29T04:36:05;14.10;99.90
15765;DHT22;7983;50.744;7.086;2022-12-29T04:38:31;14.10;99.90
15765;DHT22;7983;50.744;7.086;2022-12-29T04:40:59;14.10;99.90
15765;DHT22;7983;50.744;7.086;2022-12-29T04:43:28;14.10;99.90
15765;DHT22;7983;50.744;7.086;2022-12-29T04:45:53;14.10;99.90
15765;DHT22;7983;50.744;7.086;2022-12-29T04:48:19;14.10;99.90
15765;DHT22;7983;50.744;7.086;2022-12-29T04:50:48;14.10;99.90
15765;DHT22;7983;50.744;7.086;2022-12-29T04:53:16;14.10;99.90
15765;DHT22;7983;50.744;7.086;2022-12-29T04:55:42;14.10;99.90
15765;DHT22;7983;50.744;7.086;2022-12-29T04:58:08;14.20;99.90
15765;DHT22;7983;50.744;7.086;2022-12-29T05:00:36;14.10;99.90
15765;DHT22;7983;50.744;7.086;2022-12-29T05:03:04;14.20;99.90
15765;DHT22;7983;50.744;7.086;2022-12-29T05:05:32;14.30;99.90
15765;DHT22;7983;50.744;7.086;2022-12-29T05:07:57;14.30;99.90
15765;DHT22;7983;50.744;7.086;2022-12-29T05:10:26;14.30;99.90
15765;DHT22;7983;50.744;7.086;2022-12-29T05:12:51;14.30;99.90
15765;DHT22;7983;50.744;7.086;2022-12-29T05:15:17;14.30;99.90
15765;DHT22;7983;50.744;7.086;2022-12-29T05:17:43;14.30;99.90
15765;DHT22;7983;50.744;7.086;2022-12-29T05:20:09;14.30;99.90
15765;DHT22;7983;50.744;7.086;2022-12-29T05:22:37;14.30;99.90
15765;DHT22;7983;50.744;7.086;2022-12-29T05:25:03;14.20;99.90
15765;DHT22;7983;50.744;7.086;2022-12-29T05:27:31;14.20;99.90
15765;DHT22;7983;50.744;7.086;2022-12-29T05:29:56;14.10;99.90
15765;DHT22;7983;50.744;7.086;2022-12-29T05:32:24;14.10;99.90
15765;DHT22;7983;50.744;7.086;2022-12-29T05:34:50;14.00;99.90
15765;DHT22;7983;50.744;7.086;2022-12-29T05:37:16;14.00;99.90
15765;DHT22;7983;50.744;7.086;2022-12-29T05:39:41;13.80;99.90
15765;DHT22;7983;50.744;7.086;2022-12-29T05:42:07;13.80;99.90
15765;DHT22;7983;50.744;7.086;2022-12-29T05:44:33;13.70;99.90
15765;DHT22;7983;50.744;7.086;2022-12-29T05:47:00;13.70;99.90
15765;DHT22;7983;50.744;7.086;2022-12-29T05:49:26;13.70;99.90
15765;DHT22;7983;50.744;7.086;2022-12-29T05:51:52;13.70;99.90
15765;DHT22;7983;50.744;7.086;2022-12-29T05:54:17;13.70;99.90
15765;DHT22;7983;50.744;7.086;2022-12-29T05:56:43;13.70;99.90
15765;DHT22;7983;50.744;7.086;2022-12-29T05:59:11;13.70;99.90
15765;DHT22;7983;50.744;7.086;2022-12-29T06:01:36;13.60;99.90
15765;DHT22;7983;50.744;7.086;2022-12-29T06:04:02;13.60;99.90
15765;DHT22;7983;50.744;7.086;2022-12-29T06:06:28;13.50;99.90
15765;DHT22;7983;50.744;7.086;2022-12-29T06:08:56;13.40;99.90
15765;DHT22;7983;50.744;7.086;2022-12-29T06:11:21;13.40;99.90
15765;DHT22;7983;50.744;7.086;2022-12-29T06:13:47;13.30;99.90
15765;DHT22;7983;50.744;7.086;2022-12-29T06:16:13;13.20;99.90
15765;DHT22;7983;50.744;7.086;2022-12-29T06:18:38;13.20;99.90
15765;DHT22;7983;50.744;7.086;2022-12-29T06:21:06;13.20;99.90
15765;DHT22;7983;50.744;7.086;2022-12-29T06:23:34;13.00;99.90
15765;DHT22;7983;50.744;7.086;2022-12-29T06:26:00;13.00;99.90
15765;DHT22;7983;50.744;7.086;2022-12-29T06:28:25;12.90;99.90
15765;DHT22;7983;50.744;7.086;2022-12-29T06:30:51;12.80;99.90
15765;DHT22;7983;50.744;7.086;2022-12-29T06:33:17;12.80;99.90
15765;DHT22;7983;50.744;7.086;2022-12-29T06:35:43;12.70;99.90
15765;DHT22;7983;50.744;7.086;2022-12-29T06:38:09;12.60;99.90
15765;DHT22;7983;50.744;7.086;2022-12-29T06:40:34;12.60;99.90
15765;DHT22;7983;50.744;7.086;2022-12-29T06:43:02;12.60;99.90
15765;DHT22;7983;50.744;7.086;2022-12-29T06:45:30;12.60;99.90
15765;DHT22;7983;50.744;7.086;2022-12-29T06:47:57;12.60;99.90
15765;DHT22;7983;50.744;7.086;2022-12-29T06:50:23;12.50;99.90
15765;DHT22;7983;50.744;7.086;2022-12-29T06:52:49;12.50;99.90
15765;DHT22;7983;50.744;7.086;2022-12-29T06:55:14;12.60;99.90
15765;DHT22;7983;50.744;7.086;2022-12-29T06:57:40;12.70;99.90
15765;DHT22;7983;50.744;7.086;2022-12-29T07:00:06;12.60;99.90
15765;DHT22;7983;50.744;7.086;2022-12-29T07:02:32;12.70;99.90
15765;DHT22;7983;50.744;7.086;2022-12-29T07:04:57;12.70;99.90
15765;DHT22;7983;50.744;7.086;2022-12-29T07:07:23;12.70;99.90
15765;DHT22;7983;50.744;7.086;2022-12-29T07:09:58;12.80;99.90
15765;DHT22;7983;50.744;7.086;2022-12-29T07:12:24;12.80;99.90
15765;DHT22;7983;50.744;7.086;2022-12-29T07:14:49;12.80;99.90
15765;DHT22;7983;50.744;7.086;2022-12-29T07:17:15;12.80;99.90
15765;DHT22;7983;50.744;7.086;2022-12-29T07:19:40;12.80;99.90
15765;DHT22;7983;50.744;7.086;2022-12-29T07:22:06;12.90;99.90
15765;DHT22;7983;50.744;7.086;2022-12-29T07:24:32;12.90;99.90
15765;DHT22;7983;50.744;7.086;2022-12-29T07:27:00;12.90;99.90
15765;DHT22;7983;50.744;7.086;2022-12-29T07:29:25;13.00;99.90
15765;DHT22;7983;50.744;7.086;2022-12-29T07:31:51;13.00;99.90
15765;DHT22;7983;50.744;7.086;2022-12-29T07:34:19;13.10;99.90
15765;DHT22;7983;50.744;7.086;2022-12-29T07:36:46;13.10;99.90
15765;DHT22;7983;50.744;7.086;2022-12-29T07:39:14;13.10;99.90
15765;DHT22;7983;50.744;7.086;2022-12-29T07:41:42;13.10;99.90
15765;DHT22;7983;50.744;7.086;2022-12-29T07:44:09;13.10;99.90
15765;DHT22;7983;50.744;7.086;2022-12-29T07:46:35;13.10;99.90
15765;DHT22;7983;50.744;7.086;2022-12-29T07:49:00;13.10;99.90
15765;DHT22;7983;50.744;7.086;2022-12-29T07:51:26;13.10;99.90
15765;DHT22;7983;50.744;7.086;2022-12-29T07:53:51;13.10;99.90
15765;DHT22;7983;50.744;7.086;2022-12-29T07:56:21;13.10;99.90
15765;DHT22;7983;50.744;7.086;2022-12-29T07:58:47;13.20;99.90
15765;DHT22;7983;50.744;7.086;2022-12-29T08:01:15;13.10;99.90
15765;DHT22;7983;50.744;7.086;2022-12-29T08:03:40;13.20;99.90
15765;DHT22;7983;50.744;7.086;2022-12-29T08:06:09;13.20;99.90
15765;DHT22;7983;50.744;7.086;2022-12-29T08:08:35;13.20;99.90
15765;DHT22;7983;50.744;7.086;2022-12-29T08:11:01;13.30;99.90
15765;DHT22;7983;50.744;7.086;2022-12-29T08:13:28;13.20;99.90
15765;DHT22;7983;50.744;7.086;2022-12-29T08:15:57;13.20;99.90
15765;DHT22;7983;50.744;7.086;2022-12-29T08:18:24;13.30;99.90
15765;DHT22;7983;50.744;7.086;2022-12-29T08:20:49;13.30;99.90
15765;DHT22;7983;50.744;7.086;2022-12-29T08:23:18;13.30;99.90
15765;DHT22;7983;50.744;7.086;2022-12-29T08:25:46;13.20;99.90
15765;DHT22;7983;50.744;7.086;2022-12-29T08:28:14;13.30;99.90
15765;DHT22;7983;50.744;7.086;2022-12-29T08:30:44;13.20;99.90
15765;DHT22;7983;50.744;7.086;2022-12-29T08:33:09;13.30;99.90
15765;DHT22;7983;50.744;7.086;2022-12-29T08:35:40;13.30;99.90
15765;DHT22;7983;50.744;7.086;2022-12-29T08:38:08;13.30;99.90
15765;DHT22;7983;50.744;7.086;2022-12-29T08:40:36;13.20;99.90
15765;DHT22;7983;50.744;7.086;2022-12-29T08:43:02;13.20;99.90
15765;DHT22;7983;50.744;7.086;2022-12-29T08:45:30;13.20;99.90
15765;DHT22;7983;50.744;7.086;2022-12-29T08:47:58;13.20;99.90
15765;DHT22;7983;50.744;7.086;2022-12-29T08:50:24;13.20;99.90
15765;DHT22;7983;50.744;7.086;2022-12-29T08:52:50;13.20;99.90
15765;DHT22;7983;50.744;7.086;2022-12-29T08:55:15;13.30;99.90
15765;DHT22;7983;50.744;7.086;2022-12-29T08:57:43;13.20;99.90
15765;DHT22;7983;50.744;7.086;2022-12-29T09:00:09;13.20;99.90
15765;DHT22;7983;50.744;7.086;2022-12-29T09:02:38;13.20;99.90
15765;DHT22;7983;50.744;7.086;2022-12-29T09:05:04;13.20;99.90
15765;DHT22;7983;50.744;7.086;2022-12-29T09:07:32;13.20;99.90
15765;DHT22;7983;50.744;7.086;2022-12-29T09:09:58;13.20;99.90
15765;DHT22;7983;50.744;7.086;2022-12-29T09:12:24;13.20;99.90
15765;DHT22;7983;50.744;7.086;2022-12-29T09:14:49;13.20;99.90
15765;DHT22;7983;50.744;7.086;2022-12-29T09:17:15;13.20;99.90
15765;DHT22;7983;50.744;7.086;2022-12-29T09:19:59;13.20;99.90
15765;DHT22;7983;50.744;7.086;2022-12-29T09:22:24;13.20;99.90
15765;DHT22;7983;50.744;7.086;2022-12-29T09:24:50;13.20;99.90
15765;DHT22;7983;50.744;7.086;2022-12-29T09:27:16;13.20;99.90
15765;DHT22;7983;50.744;7.086;2022-12-29T09:29:43;13.20;99.90
15765;DHT22;7983;50.744;7.086;2022-12-29T09:32:11;13.20;99.90
15765;DHT22;7983;50.744;7.086;2022-12-29T09:34:37;13.30;99.90
15765;DHT22;7983;50.744;7.086;2022-12-29T09:37:05;13.30;99.90
15765;DHT22;7983;50.744;7.086;2022-12-29T09:39:30;13.30;99.90
15765;DHT22;7983;50.744;7.086;2022-12-29T09:42:00;13.30;99.90
15765;DHT22;7983;50.744;7.086;2022-12-29T09:47:13;13.30;99.90
15765;DHT22;7983;50.744;7.086;2022-12-29T09:52:29;13.30;99.90
15765;DHT22;7983;50.744;7.086;2022-12-29T10:00:21;13.40;99.90
15765;DHT22;7983;50.744;7.086;2022-12-29T10:02:50;13.40;99.90
15765;DHT22;7983;50.744;7.086;2022-12-29T10:10:40;13.50;99.90
15765;DHT22;7983;50.744;7.086;2022-12-29T10:24:07;13.90;99.90
15765;DHT22;7983;50.744;7.086;2022-12-29T10:26:40;14.00;99.90
15765;DHT22;7983;50.744;7.086;2022-12-29T10:29:18;14.10;99.90
15765;DHT22;7983;50.744;7.086;2022-12-29T10:31:48;14.20;99.90
15765;DHT22;7983;50.744;7.086;2022-12-29T10:34:25;14.30;99.90
15765;DHT22;7983;50.744;7.086;2022-12-29T10:36:55;14.50;99.90
15765;DHT22;7983;50.744;7.086;2022-12-29T10:39:47;14.60;99.90
15765;DHT22;7983;50.744;7.086;2022-12-29T10:42:36;14.60;99.90
15765;DHT22;7983;50.744;7.086;2022-12-29T10:45:07;14.60;99.90
15765;DHT22;7983;50.744;7.086;2022-12-29T10:50:27;14.50;99.90
15765;DHT22;7983;50.744;7.086;2022-12-29T10:53:00;14.50;99.90
15765;DHT22;7983;50.744;7.086;2022-12-29T10:55:35;14.40;99.90
15765;DHT22;7983;50.744;7.086;2022-12-29T10:58:06;14.50;99.90
15765;DHT22;7983;50.744;7.086;2022-12-29T11:00:35;14.50;99.90
15765;DHT22;7983;50.744;7.086;2022-12-29T11:08:19;14.50;99.90
15765;DHT22;7983;50.744;7.086;2022-12-29T11:11:04;14.50;99.90
15765;DHT22;7983;50.744;7.086;2022-12-29T11:13:33;14.50;99.90
15765;DHT22;7983;50.744;7.086;2022-12-29T11:15:59;14.50;99.90
15765;DHT22;7983;50.744;7.086;2022-12-29T11:18:36;14.50;99.90
15765;DHT22;7983;50.744;7.086;2022-12-29T11:21:33;14.50;99.90
15765;DHT22;7983;50.744;7.086;2022-12-29T11:24:27;14.50;99.90
15765;DHT22;7983;50.744;7.086;2022-12-29T11:27:14;14.50;99.90
15765;DHT22;7983;50.744;7.086;2022-12-29T11:29:44;14.60;99.90
15765;DHT22;7983;50.744;7.086;2022-12-29T11:32:21;14.60;99.90
15765;DHT22;7983;50.744;7.086;2022-12-29T11:34:47;14.70;99.90
15765;DHT22;7983;50.744;7.086;2022-12-29T11:37:19;14.70;99.90
15765;DHT22;7983;50.744;7.086;2022-12-29T11:42:29;14.80;99.90
15765;DHT22;7983;50.744;7.086;2022-12-29T11:45:09;14.80;99.90
15765;DHT22;7983;50.744;7.086;2022-12-29T11:47:43;14.90;99.90
15765;DHT22;7983;50.744;7.086;2022-12-29T11:50:26;14.90;99.90
15765;DHT22;7983;50.744;7.086;2022-12-29T11:53:02;15.00;99.90
15765;DHT22;7983;50.744;7.086;2022-12-29T11:55:32;15.00;99.90
15765;DHT22;7983;50.744;7.086;2022-12-29T11:58:02;15.00;99.90
15765;DHT22;7983;50.744;7.086;2022-12-29T12:00:34;15.00;99.90
15765;DHT22;7983;50.744;7.086;2022-12-29T12:03:13;14.90;99.90
15765;DHT22;7983;50.744;7.086;2022-12-29T12:05:59;14.80;99.90
15765;DHT22;7983;50.744;7.086;2022-12-29T12:08:45;14.80;99.90
15765;DHT22;7983;50.744;7.086;2022-12-29T12:11:16;14.70;99.90
15765;DHT22;7983;50.744;7.086;2022-12-29T12:14:00;14.70;99.90
15765;DHT22;7983;50.744;7.086;2022-12-29T12:16:54;14.60;99.90
15765;DHT22;7983;50.744;7.086;2022-12-29T12:19:43;14.60;99.90
15765;DHT22;7983;50.744;7.086;2022-12-29T12:30:01;14.40;99.90
15765;DHT22;7983;50.744;7.086;2022-12-29T12:34:59;14.40;99.90
15765;DHT22;7983;50.744;7.086;2022-12-29T13:09:25;14.00;99.90
15765;DHT22;7983;50.744;7.086;2022-12-29T13:12:12;14.00;99.90
15765;DHT22;7983;50.744;7.086;2022-12-29T13:23:27;14.00;99.90
15765;DHT22;7983;50.744;7.086;2022-12-29T13:31:49;14.00;99.90
15765;DHT22;7983;50.744;7.086;2022-12-29T13:37:15;13.90;99.90
15765;DHT22;7983;50.744;7.086;2022-12-29T13:39:52;13.90;99.90
15765;DHT22;7983;50.744;7.086;2022-12-29T13:42:21;13.90;99.90
15765;DHT22;7983;50.744;7.086;2022-12-29T13:45:10;13.90;99.90
15765;DHT22;7983;50.744;7.086;2022-12-29T13:47:57;13.90;99.90
15765;DHT22;7983;50.744;7.086;2022-12-29T13:50:27;13.80;99.90
15765;DHT22;7983;50.744;7.086;2022-12-29T13:56:09;13.80;99.90
15765;DHT22;7983;50.744;7.086;2022-12-29T14:01:34;13.80;99.90
15765;DHT22;7983;50.744;7.086;2022-12-29T14:04:11;13.80;99.90
15765;DHT22;7983;50.744;7.086;2022-12-29T14:06:38;13.80;99.90
15765;DHT22;7983;50.744;7.086;2022-12-29T14:11:54;13.80;99.90
15765;DHT22;7983;50.744;7.086;2022-12-29T14:14:27;13.90;99.90
15765;DHT22;7983;50.744;7.086;2022-12-29T14:16:53;14.00;99.90
15765;DHT22;7983;50.744;7.086;2022-12-29T14:19:28;14.10;99.90
15765;DHT22;7983;50.744;7.086;2022-12-29T14:22:02;14.10;99.90
15765;DHT22;7983;50.744;7.086;2022-12-29T14:29:49;14.20;99.90
15765;DHT22;7983;50.744;7.086;2022-12-29T14:34:56;14.10;99.90
15765;DHT22;7983;50.744;7.086;2022-12-29T14:37:26;14.10;99.90
15765;DHT22;7983;50.744;7.086;2022-12-29T14:40:26;14.10;99.90
15765;DHT22;7983;50.744;7.086;2022-12-29T14:42:54;14.00;99.90
15765;DHT22;7983;50.744;7.086;2022-12-29T14:47:52;13.90;99.90
15765;DHT22;7983;50.744;7.086;2022-12-29T14:50:23;13.90;99.90
15765;DHT22;7983;50.744;7.086;2022-12-29T14:55:41;13.80;99.90
15765;DHT22;7983;50.744;7.086;2022-12-29T14:58:15;13.60;99.90
15765;DHT22;7983;50.744;7.086;2022-12-29T15:00:47;13.60;99.90
15765;DHT22;7983;50.744;7.086;2022-12-29T15:03:22;13.50;99.90
15765;DHT22;7983;50.744;7.086;2022-12-29T15:05:50;13.40;99.90
15765;DHT22;7983;50.744;7.086;2022-12-29T15:08:35;13.50;99.90
15765;DHT22;7983;50.744;7.086;2022-12-29T15:11:09;13.30;99.90
15765;DHT22;7983;50.744;7.086;2022-12-29T15:13:41;13.30;99.90
15765;DHT22;7983;50.744;7.086;2022-12-29T15:16:40;13.20;99.90
15765;DHT22;7983;50.744;7.086;2022-12-29T15:19:21;13.10;99.90
15765;DHT22;7983;50.744;7.086;2022-12-29T15:21:49;12.90;99.90
15765;DHT22;7983;50.744;7.086;2022-12-29T15:24:15;12.70;99.90
15765;DHT22;7983;50.744;7.086;2022-12-29T15:26:51;12.50;99.90
15765;DHT22;7983;50.744;7.086;2022-12-29T15:29:38;12.30;99.90
15765;DHT22;7983;50.744;7.086;2022-12-29T15:34:46;11.90;99.90
15765;DHT22;7983;50.744;7.086;2022-12-29T15:37:24;11.80;99.90
15765;DHT22;7983;50.744;7.086;2022-12-29T15:39:51;11.60;99.90
15765;DHT22;7983;50.744;7.086;2022-12-29T15:45:14;11.50;99.90
15765;DHT22;7983;50.744;7.086;2022-12-29T15:47:42;11.40;99.90
15765;DHT22;7983;50.744;7.086;2022-12-29T15:52:48;11.20;99.90
15765;DHT22;7983;50.744;7.086;2022-12-29T15:55:35;11.20;99.90
15765;DHT22;7983;50.744;7.086;2022-12-29T15:58:04;11.10;99.90
15765;DHT22;7983;50.744;7.086;2022-12-29T16:00:35;11.10;99.90
15765;DHT22;7983;50.744;7.086;2022-12-29T16:03:05;11.00;99.90
15765;DHT22;7983;50.744;7.086;2022-12-29T16:05:36;11.00;99.90
15765;DHT22;7983;50.744;7.086;2022-12-29T16:08:03;10.90;99.90
15765;DHT22;7983;50.744;7.086;2022-12-29T16:10:43;10.90;99.90
15765;DHT22;7983;50.744;7.086;2022-12-29T16:13:32;10.80;99.90
15765;DHT22;7983;50.744;7.086;2022-12-29T16:16:22;10.80;99.90
15765;DHT22;7983;50.744;7.086;2022-12-29T16:18:51;10.80;99.90
15765;DHT22;7983;50.744;7.086;2022-12-29T16:23:55;10.70;99.90
15765;DHT22;7983;50.744;7.086;2022-12-29T16:26:24;10.80;99.90
15765;DHT22;7983;50.744;7.086;2022-12-29T16:28:53;10.70;99.90
15765;DHT22;7983;50.744;7.086;2022-12-29T16:31:35;10.70;99.90
15765;DHT22;7983;50.744;7.086;2022-12-29T16:34:26;10.80;99.90
15765;DHT22;7983;50.744;7.086;2022-12-29T16:37:31;10.80;99.90
15765;DHT22;7983;50.744;7.086;2022-12-29T16:40:27;10.80;99.90
15765;DHT22;7983;50.744;7.086;2022-12-29T16:42:59;10.80;99.90
15765;DHT22;7983;50.744;7.086;2022-12-29T16:50:42;10.70;99.90
15765;DHT22;7983;50.744;7.086;2022-12-29T16:53:25;10.70;99.90
15765;DHT22;7983;50.744;7.086;2022-12-29T16:55:53;10.70;99.90
15765;DHT22;7983;50.744;7.086;2022-12-29T16:58:24;10.80;99.90
15765;DHT22;7983;50.744;7.086;2022-12-29T17:00:55;10.70;99.90
15765;DHT22;7983;50.744;7.086;2022-12-29T17:03:31;10.80;99.90
15765;DHT22;7983;50.744;7.086;2022-12-29T17:06:00;10.80;99.90
15765;DHT22;7983;50.744;7.086;2022-12-29T17:08:26;10.80;99.90
15765;DHT22;7983;50.744;7.086;2022-12-29T17:10:54;10.70;99.90
15765;DHT22;7983;50.744;7.086;2022-12-29T17:13:41;10.80;99.90
15765;DHT22;7983;50.744;7.086;2022-12-29T17:16:10;10.80;99.90
15765;DHT22;7983;50.744;7.086;2022-12-29T17:18:36;10.80;99.90
15765;DHT22;7983;50.744;7.086;2022-12-29T17:21:02;10.80;99.90
15765;DHT22;7983;50.744;7.086;2022-12-29T17:23:32;10.80;99.90
15765;DHT22;7983;50.744;7.086;2022-12-29T17:26:01;10.80;99.90
15765;DHT22;7983;50.744;7.086;2022-12-29T17:28:31;10.90;99.90
15765;DHT22;7983;50.744;7.086;2022-12-29T17:31:06;10.90;99.90
15765;DHT22;7983;50.744;7.086;2022-12-29T17:33:37;10.90;99.90
15765;DHT22;7983;50.744;7.086;2022-12-29T17:36:03;11.00;99.90
15765;DHT22;7983;50.744;7.086;2022-12-29T17:38:31;11.00;99.90
15765;DHT22;7983;50.744;7.086;2022-12-29T17:40:59;10.90;99.90
15765;DHT22;7983;50.744;7.086;2022-12-29T17:43:27;11.00;99.90
15765;DHT22;7983;50.744;7.086;2022-12-29T17:45:55;11.00;99.90
15765;DHT22;7983;50.744;7.086;2022-12-29T17:48:21;11.00;99.90
15765;DHT22;7983;50.744;7.086;2022-12-29T17:50:49;11.00;99.90
15765;DHT22;7983;50.744;7.086;2022-12-29T17:53:21;11.00;99.90
15765;DHT22;7983;50.744;7.086;2022-12-29T17:55:48;11.00;99.90
15765;DHT22;7983;50.744;7.086;2022-12-29T18:00:44;11.00;99.90
15765;DHT22;7983;50.744;7.086;2022-12-29T18:03:17;11.00;99.90
15765;DHT22;7983;50.744;7.086;2022-12-29T18:05:46;11.10;99.90
15765;DHT22;7983;50.744;7.086;2022-12-29T18:08:14;11.00;99.90
15765;DHT22;7983;50.744;7.086;2022-12-29T18:10:40;11.10;99.90
15765;DHT22;7983;50.744;7.086;2022-12-29T18:13:28;11.00;99.90
15765;DHT22;7983;50.744;7.086;2022-12-29T18:15:55;11.00;99.90
15765;DHT22;7983;50.744;7.086;2022-12-29T18:18:23;11.00;99.90
15765;DHT22;7983;50.744;7.086;2022-12-29T18:20:55;11.00;99.90
15765;DHT22;7983;50.744;7.086;2022-12-29T18:23:30;11.00;99.90
15765;DHT22;7983;50.744;7.086;2022-12-29T18:26:05;10.90;99.90
15765;DHT22;7983;50.744;7.086;2022-12-29T18:28:39;10.90;99.90
15765;DHT22;7983;50.744;7.086;2022-12-29T18:31:30;10.90;99.90
15765;DHT22;7983;50.744;7.086;2022-12-29T18:34:05;10.90;99.90
15765;DHT22;7983;50.744;7.086;2022-12-29T18:36:37;10.90;99.90
15765;DHT22;7983;50.744;7.086;2022-12-29T18:39:06;10.90;99.90
15765;DHT22;7983;50.744;7.086;2022-12-29T18:41:32;10.90;99.90
15765;DHT22;7983;50.744;7.086;2022-12-29T18:43:58;10.90;99.90
15765;DHT22;7983;50.744;7.086;2022-12-29T18:46:36;10.80;99.90
15765;DHT22;7983;50.744;7.086;2022-12-29T18:49:02;10.90;99.90
15765;DHT22;7983;50.744;7.086;2022-12-29T18:51:31;10.90;99.90
15765;DHT22;7983;50.744;7.086;2022-12-29T18:53:56;10.90;99.90
15765;DHT22;7983;50.744;7.086;2022-12-29T18:56:24;10.90;99.90
15765;DHT22;7983;50.744;7.086;2022-12-29T18:58:50;11.00;99.90
15765;DHT22;7983;50.744;7.086;2022-12-29T19:01:23;10.90;99.90
15765;DHT22;7983;50.744;7.086;2022-12-29T19:03:49;10.90;99.90
15765;DHT22;7983;50.744;7.086;2022-12-29T19:06:14;11.00;99.90
15765;DHT22;7983;50.744;7.086;2022-12-29T19:08:40;10.90;99.90
15765;DHT22;7983;50.744;7.086;2022-12-29T19:11:06;10.90;99.90